Terminal Aerodrome Forecast
Issued by NWS Cleveland, OH

Home | Current Version | Previous Version | Graphics & Text | Print | Product List | Glossary Off
Versions: 1 2 3 4 5 6 7 8 9 10 11 12 13 14

384
FTUS41 KCLE 101135
TAFCAK
TAF
KCAK 101135Z 1012/1112 26010KT P6SM OVC050
     FM101900 26010G18KT P6SM OVC070
     FM102300 24008KT P6SM OVC035
     FM110800 22006KT 4SM -SN OVC025=

USA.gov is the U.S. government's official web portal to all federal, state and local government web resources and services.